Pagrindinis puslapis
METAR-TAF:

METAR-TAF

Oro uostai :

Dakaras, Senegalas

platuma: 14-44N, ilguma: 017-30W, Aukštis: 27 m

Dabartinis oras

Ataskaita buvo paskelbta 33 minutes, ne 07:00 UTC
Vėjas 14 kt iš Šiaurės/Šiaurės Rytų
Temperatūra 21°C
Drėgmė 69%
Slėgis 1013 hPa
Matomumas: 9000 m

METAR: GOOY 060700Z 02014KT 9000 NSC 21/15 Q1013

Laikas: 07:33 (07:33 UTC)

Prognozė

Ataskaita buvo paskelbta 2 valandos ir 3 minutes, ne 05:30 UTC
Prognozė galioja nuo 06 metu 06 UTC su 07 metu 12 UTC
Vėjas 14 kt iš Šiaurės
Matomumas 10 km arba daugiau
nėra debesų žemiau 1500 m ir nėra kamuolinių lietaus debesų

TAF: GOOY 060530Z 0606/0712 36014KT CAVOK

Orai ataskaitas ir orų prognozės (METAR, TAF).

turimą stotys yra geltonos ir raudonos taškus žemėlapyje.

Perkelti pele per norėdami pamatyti stoties vardą.

Tada spustelėkite, norėdami matyti oro stebėjimo ir prognozės.

Norėdami pakeisti žemėlapį: spustelėkite ant žalios mygtukų su juodo kryžiaus žemyn,; žalią mygtuką su brūkšneliu, jei norite nutolinti; arba žalių rodyklių gretimoms žemėlapius.


METAR-TAF: